createdAt,value
2023-04-17T00:01:47.706Z,99112.00
2023-04-17T00:04:14.268Z,99119.97
2023-04-17T00:06:43.181Z,99117.53
2023-04-17T00:09:09.653Z,99116.72
2023-04-17T00:11:36.146Z,99115.94
2023-04-17T00:14:02.441Z,99119.06
2023-04-17T00:16:28.787Z,99124.16
2023-04-17T00:18:55.102Z,99118.25
2023-04-17T00:21:21.380Z,99118.25
2023-04-17T00:23:47.677Z,99122.53
2023-04-17T00:26:13.950Z,99118.25
2023-04-17T00:28:40.266Z,99128.91
2023-04-17T00:31:06.565Z,99124.63
2023-04-17T00:33:32.889Z,99124.63
2023-04-17T00:35:59.273Z,99114.22
2023-04-17T00:38:26.058Z,99113.41
2023-04-17T00:40:52.339Z,99103.78
2023-04-17T00:43:18.650Z,99105.91
2023-04-17T00:45:46.131Z,99107.75
2023-04-17T00:48:13.317Z,99105.34
2023-04-17T00:50:39.622Z,99109.84
2023-04-17T00:53:06.092Z,99109.03
2023-04-17T00:55:32.414Z,99111.69
2023-04-17T00:57:58.761Z,99117.25
2023-04-17T01:00:25.147Z,99111.13
2023-04-17T01:02:51.774Z,99112.19
2023-04-17T01:05:18.200Z,99107.88
2023-04-17T01:07:44.480Z,99103.63
2023-04-17T01:10:10.783Z,99106.28
2023-04-17T01:12:37.130Z,99108.13
2023-04-17T01:15:03.502Z,99109.19
2023-04-17T01:17:29.824Z,99104.66
2023-04-17T01:19:56.564Z,99111.84
2023-04-17T01:22:22.865Z,99111.03
2023-04-17T01:24:49.164Z,99108.38
2023-04-17T01:27:15.704Z,99117.41
2023-04-17T01:29:42.113Z,99120.09
2023-04-17T01:32:08.401Z,99113.13
2023-04-17T01:34:37.215Z,99121.91
2023-04-17T01:37:03.819Z,99122.16
2023-04-17T01:39:30.114Z,99118.94
2023-04-17T01:41:56.475Z,99116.28
2023-04-17T01:44:22.755Z,99123.66
2023-04-17T01:46:49.034Z,99127.94
2023-04-17T01:49:15.365Z,99127.38
2023-04-17T01:51:41.693Z,99129.00
2023-04-17T01:54:08.029Z,99128.44
2023-04-17T01:56:34.317Z,99129.47
2023-04-17T01:59:00.607Z,99126.19
2023-04-17T02:01:26.923Z,99132.31
2023-04-17T02:03:53.434Z,99133.84
2023-04-17T02:06:19.833Z,99133.00
2023-04-17T02:08:46.126Z,99128.91
2023-04-17T02:11:13.507Z,99135.38
2023-04-17T02:13:39.852Z,99138.38
2023-04-17T02:16:07.433Z,99140.41
2023-04-17T02:18:33.816Z,99133.56
2023-04-17T02:21:00.239Z,99126.91
2023-04-17T02:23:26.549Z,99129.91
2023-04-17T02:25:52.831Z,99128.88
2023-04-17T02:28:19.165Z,99131.53
2023-04-17T02:30:45.766Z,99130.72
2023-04-17T02:33:12.060Z,99128.88
2023-04-17T02:35:38.344Z,99125.41
2023-04-17T02:38:04.992Z,99135.50
2023-04-17T02:40:31.281Z,99133.63
2023-04-17T02:42:57.580Z,99127.25
2023-04-17T02:45:23.875Z,99131.88
2023-04-17T02:47:50.285Z,99129.28
2023-04-17T02:50:18.345Z,99128.81
2023-04-17T02:52:44.676Z,99132.84
2023-04-17T02:55:11.013Z,99129.16
2023-04-17T02:57:37.341Z,99128.66
2023-04-17T03:00:07.907Z,99130.25
2023-04-17T03:02:34.338Z,99133.50
2023-04-17T03:05:02.129Z,99132.44
2023-04-17T03:07:28.492Z,99125.06
2023-04-17T03:09:57.493Z,99135.09
2023-04-17T03:12:23.858Z,99134.84
2023-04-17T03:14:50.169Z,99131.63
2023-04-17T03:17:16.547Z,99130.84
2023-04-17T03:19:42.865Z,99132.44
2023-04-17T03:22:10.044Z,99140.19
2023-04-17T03:24:37.668Z,99140.00
2023-04-17T03:27:04.050Z,99137.34
2023-04-17T03:29:30.445Z,99137.06
2023-04-17T03:31:56.861Z,99142.97
2023-04-17T03:34:23.388Z,99140.56
2023-04-17T03:36:49.690Z,99145.88
2023-04-17T03:39:16.259Z,99148.19
2023-04-17T03:41:42.624Z,99150.28
2023-04-17T03:44:09.119Z,99150.84
2023-04-17T03:46:35.565Z,99144.72
2023-04-17T03:49:01.896Z,99144.53
2023-04-17T03:51:28.580Z,99146.47
2023-04-17T03:53:54.922Z,99147.25
2023-04-17T03:56:21.853Z,99148.63
2023-04-17T03:58:48.244Z,99154.53
2023-04-17T04:01:14.736Z,99162.53
2023-04-17T04:03:41.446Z,99160.66
2023-04-17T04:06:08.018Z,99159.06
2023-04-17T04:08:34.455Z,99159.88
2023-04-17T04:11:01.284Z,99160.91
2023-04-17T04:13:27.640Z,99164.63
2023-04-17T04:15:54.017Z,99164.63
2023-04-17T04:18:20.427Z,99163.88
2023-04-17T04:20:46.740Z,99170.03
2023-04-17T04:23:13.234Z,99170.81
2023-04-17T04:25:41.833Z,99170.59
2023-04-17T04:28:08.176Z,99178.59
2023-04-17T04:30:38.542Z,99177.78
2023-04-17T04:33:05.662Z,99170.81
2023-04-17T04:35:32.178Z,99175.34
2023-04-17T04:38:02.248Z,99174.22
2023-04-17T04:40:30.579Z,99182.22
2023-04-17T04:42:57.061Z,99174.72
2023-04-17T04:45:23.411Z,99177.84
2023-04-17T04:47:49.876Z,99173.03
2023-04-17T04:50:16.452Z,99178.53
2023-04-17T04:52:42.841Z,99178.53
2023-04-17T04:55:09.155Z,99178.09
2023-04-17T04:57:36.337Z,99179.25
2023-04-17T05:00:04.005Z,99179.78
2023-04-17T05:02:30.529Z,99188.94
2023-04-17T05:04:58.054Z,99183.34
2023-04-17T05:07:24.433Z,99185.53
2023-04-17T05:09:50.748Z,99197.00
2023-04-17T05:12:17.067Z,99198.06
2023-04-17T05:14:43.469Z,99198.41
2023-04-17T05:17:09.789Z,99205.59
2023-04-17T05:19:36.127Z,99208.25
2023-04-17T05:22:02.433Z,99201.88
2023-04-17T05:24:28.782Z,99207.53
2023-04-17T05:26:55.175Z,99213.66
2023-04-17T05:29:21.483Z,99213.41
2023-04-17T05:31:47.836Z,99216.88
2023-04-17T05:34:14.186Z,99209.69
2023-04-17T05:36:40.508Z,99227.06
2023-04-17T05:39:06.835Z,99226.75
2023-04-17T05:41:33.252Z,99228.03
2023-04-17T05:43:59.586Z,99235.00
2023-04-17T05:46:26.009Z,99234.19
2023-04-17T05:48:52.385Z,99240.47
2023-04-17T05:51:18.701Z,99230.53
2023-04-17T05:53:45.284Z,99229.38
2023-04-17T05:56:11.633Z,99233.09
2023-04-17T05:58:38.426Z,99236.09
2023-04-17T06:01:06.244Z,99239.91
2023-04-17T06:03:33.171Z,99238.38
2023-04-17T06:05:59.905Z,99240.53
2023-04-17T06:08:27.992Z,99240.06
2023-04-17T06:10:55.941Z,99247.00
2023-04-17T06:13:23.355Z,99249.22
2023-04-17T06:15:49.938Z,99252.94
2023-04-17T06:18:17.525Z,99255.25
2023-04-17T06:20:44.408Z,99248.53
2023-04-17T06:23:11.025Z,99258.97
2023-04-17T06:25:37.355Z,99257.13
2023-04-17T06:28:03.867Z,99260.59
2023-04-17T06:30:30.196Z,99266.72
2023-04-17T06:32:56.599Z,99265.94
2023-04-17T06:35:22.944Z,99271.91
2023-04-17T06:37:49.281Z,99270.38
2023-04-17T06:40:15.695Z,99277.66
2023-04-17T06:42:42.094Z,99274.59
2023-04-17T06:45:08.529Z,99282.94
2023-04-17T06:47:34.944Z,99274.13
2023-04-17T06:50:01.699Z,99278.94
2023-04-17T06:52:28.040Z,99279.53
2023-04-17T06:54:54.506Z,99282.75
2023-04-17T06:57:22.100Z,99289.94
2023-04-17T06:59:48.550Z,99288.56
2023-04-17T07:02:15.031Z,99287.03
2023-04-17T07:04:41.810Z,99293.16
2023-04-17T07:07:08.237Z,99288.16
2023-04-17T07:09:34.570Z,99288.16
2023-04-17T07:12:00.907Z,99286.56
2023-04-17T07:14:27.409Z,99291.34
2023-04-17T07:16:53.803Z,99298.50
2023-04-17T07:19:20.261Z,99294.22
2023-04-17T07:21:46.591Z,99294.88
2023-04-17T07:24:12.948Z,99300.78
2023-04-17T07:26:40.404Z,99305.31
2023-04-17T07:29:06.788Z,99297.63
2023-04-17T07:31:33.282Z,99296.69
2023-04-17T07:34:00.566Z,99306.97
2023-04-17T07:36:28.618Z,99303.63
2023-04-17T07:38:54.972Z,99308.66
2023-04-17T07:41:21.292Z,99301.13
2023-04-17T07:43:47.625Z,99307.84
2023-04-17T07:46:14.237Z,99306.19
2023-04-17T07:48:40.649Z,99317.19
2023-04-17T07:51:07.704Z,99316.13
2023-04-17T07:56:02.274Z,99308.72
2023-04-17T07:58:28.611Z,99324.16
2023-04-17T08:00:54.983Z,99317.69
2023-04-17T08:03:22.368Z,99321.47
2023-04-17T08:05:48.883Z,99316.00
2023-04-17T08:08:16.096Z,99321.41
2023-04-17T08:10:42.431Z,99316.31
2023-04-17T08:13:08.789Z,99320.34
2023-04-17T08:15:35.101Z,99331.03
2023-04-17T08:18:01.538Z,99323.00
2023-04-17T08:20:27.954Z,99329.72
2023-04-17T08:22:54.285Z,99337.50
2023-04-17T08:25:20.630Z,99331.59
2023-04-17T08:27:47.044Z,99337.22
2023-04-17T08:30:16.148Z,99339.41
2023-04-17T08:32:45.279Z,99339.50
2023-04-17T08:35:12.009Z,99341.16
2023-04-17T08:37:38.609Z,99342.38
2023-04-17T08:40:06.226Z,99342.47
2023-04-17T08:42:34.715Z,99345.19
2023-04-17T08:45:01.842Z,99334.81
2023-04-17T08:47:28.471Z,99343.16
2023-04-17T08:49:55.951Z,99342.66
2023-04-17T08:52:22.269Z,99343.75
2023-04-17T08:54:51.047Z,99344.09
2023-04-17T08:57:17.694Z,99342.00
2023-04-17T08:59:45.597Z,99341.09
2023-04-17T09:02:12.529Z,99338.34
2023-04-17T09:04:42.520Z,99346.38
2023-04-17T09:07:10.463Z,99345.34
2023-04-17T09:09:55.557Z,99346.63
2023-04-17T09:12:25.041Z,99344.22
2023-04-17T09:14:51.384Z,99343.69
2023-04-17T09:17:18.465Z,99350.75
2023-04-17T09:20:04.396Z,99350.56
2023-04-17T09:22:31.046Z,99350.59
2023-04-17T09:24:57.828Z,99358.69
2023-04-17T09:27:24.674Z,99349.06
2023-04-17T09:29:57.597Z,99360.38
2023-04-17T09:32:23.944Z,99350.94
2023-04-17T09:34:50.599Z,99353.66
2023-04-17T09:37:16.957Z,99352.66
2023-04-17T09:40:15.515Z,99348.41
2023-04-17T09:43:00.951Z,99352.66
2023-04-17T09:45:33.320Z,99358.00
2023-04-17T09:48:01.064Z,99353.22
2023-04-17T09:50:27.544Z,99357.88
2023-04-17T09:52:54.426Z,99362.63
2023-04-17T09:55:24.154Z,99360.00
2023-04-17T09:57:51.467Z,99357.13
2023-04-17T10:00:18.548Z,99356.59
2023-04-17T10:02:45.089Z,99357.38
2023-04-17T10:05:11.772Z,99362.75
2023-04-17T10:07:38.956Z,99361.88
2023-04-17T10:10:09.272Z,99367.75
2023-04-17T10:12:36.847Z,99358.47
2023-04-17T10:15:03.295Z,99354.94
2023-04-17T10:17:31.597Z,99357.06
2023-04-17T10:20:23.078Z,99360.06
2023-04-17T10:22:54.216Z,99359.53
2023-04-17T10:25:22.121Z,99357.94
2023-04-17T10:27:49.310Z,99352.59
2023-04-17T10:30:16.172Z,99357.63
2023-04-17T10:32:44.379Z,99357.06
2023-04-17T10:35:16.838Z,99357.28
2023-04-17T10:37:52.277Z,99357.22
2023-04-17T10:40:22.378Z,99353.34
2023-04-17T10:43:06.948Z,99347.50
2023-04-17T10:45:52.165Z,99348.56
2023-04-17T10:48:22.135Z,99349.91
2023-04-17T10:50:48.521Z,99345.16
2023-04-17T10:53:33.326Z,99338.72
2023-04-17T10:55:59.653Z,99332.81
2023-04-17T10:58:31.710Z,99332.69
2023-04-17T11:01:00.319Z,99334.41
2023-04-17T11:03:27.121Z,99331.19
2023-04-17T11:05:53.580Z,99331.78
2023-04-17T11:08:20.210Z,99328.53
2023-04-17T11:10:46.600Z,99327.22
2023-04-17T11:13:12.923Z,99326.97
2023-04-17T11:15:39.389Z,99329.66
2023-04-17T11:18:06.232Z,99332.63
2023-04-17T11:20:32.951Z,99335.56
2023-04-17T11:23:02.552Z,99335.56
2023-04-17T11:25:31.358Z,99337.34
2023-04-17T11:27:57.852Z,99332.03
2023-04-17T11:30:25.366Z,99341.47
2023-04-17T11:32:51.985Z,99328.16
2023-04-17T11:35:21.088Z,99325.53
2023-04-17T11:38:06.006Z,99323.69
2023-04-17T11:40:32.323Z,99332.28
2023-04-17T11:43:03.010Z,99330.66
2023-04-17T11:45:31.439Z,99331.91
2023-04-17T11:47:57.805Z,99329.97
2023-04-17T11:50:28.012Z,99337.63
2023-04-17T11:52:56.430Z,99324.94
2023-04-17T11:55:22.899Z,99332.72
2023-04-17T11:57:51.317Z,99333.75
2023-04-17T12:00:17.942Z,99332.41
2023-04-17T12:02:44.409Z,99336.94
2023-04-17T12:05:14.170Z,99338.00
2023-04-17T12:07:40.601Z,99329.09
2023-04-17T12:10:07.947Z,99337.09
2023-04-17T12:12:34.265Z,99322.72
2023-04-17T12:15:01.080Z,99329.84
2023-04-17T12:17:27.441Z,99325.94
2023-04-17T12:19:53.799Z,99321.16
2023-04-17T12:22:20.259Z,99330.22
2023-04-17T12:24:46.580Z,99330.81
2023-04-17T12:27:12.929Z,99325.69
2023-04-17T12:29:44.350Z,99329.41
2023-04-17T12:32:11.547Z,99317.94
2023-04-17T12:34:38.017Z,99320.34
2023-04-17T12:37:04.382Z,99322.09
2023-04-17T12:39:30.723Z,99318.94
2023-04-17T12:41:57.048Z,99317.38
2023-04-17T12:44:23.388Z,99320.78
2023-04-17T12:46:49.694Z,99314.38
2023-04-17T12:49:16.027Z,99319.16
2023-04-17T12:51:42.614Z,99314.53
2023-04-17T12:54:08.945Z,99318.25
2023-04-17T12:56:35.306Z,99318.78
2023-04-17T12:59:03.084Z,99319.25
2023-04-17T13:01:29.859Z,99314.97
2023-04-17T13:03:56.564Z,99318.13
2023-04-17T13:06:23.084Z,99315.94
2023-04-17T13:08:49.843Z,99318.59
2023-04-17T13:11:16.345Z,99315.38
2023-04-17T13:13:42.673Z,99312.41
2023-04-17T13:16:09.442Z,99311.59
2023-04-17T13:18:36.014Z,99309.19
2023-04-17T13:21:02.328Z,99304.91
2023-04-17T13:23:28.777Z,99309.41
2023-04-17T13:25:55.287Z,99309.66
2023-04-17T13:28:21.637Z,99307.78
2023-04-17T13:30:48.026Z,99306.19
2023-04-17T13:33:14.360Z,99311.44
2023-04-17T13:35:41.052Z,99306.59
2023-04-17T13:38:07.430Z,99302.56
2023-04-17T13:40:33.749Z,99299.66
2023-04-17T13:43:00.486Z,99298.34
2023-04-17T13:45:26.868Z,99286.09
2023-04-17T13:47:53.243Z,99289.63
2023-04-17T13:50:19.578Z,99279.16
2023-04-17T13:52:45.897Z,99276.75
2023-04-17T13:55:14.660Z,99274.88
2023-04-17T13:57:41.088Z,99268.75
2023-04-17T14:00:07.733Z,99271.88
2023-04-17T14:02:34.632Z,99268.09
2023-04-17T14:05:01.212Z,99270.69
2023-04-17T14:07:27.609Z,99272.56
2023-04-17T14:09:53.993Z,99262.13
2023-04-17T14:12:21.621Z,99265.88
2023-04-17T14:14:48.099Z,99266.09
2023-04-17T14:17:14.478Z,99269.00
2023-04-17T14:19:40.833Z,99269.28
2023-04-17T14:22:07.160Z,99264.16
2023-04-17T14:24:33.506Z,99263.34
2023-04-17T14:27:02.031Z,99259.31
2023-04-17T14:29:28.437Z,99261.19
2023-04-17T14:31:54.972Z,99248.25
2023-04-17T14:34:21.412Z,99253.34
2023-04-17T14:36:48.645Z,99250.81
2023-04-17T14:39:15.214Z,99245.22
2023-04-17T14:41:41.739Z,99241.84
2023-04-17T14:44:08.095Z,99247.28
2023-04-17T14:46:34.462Z,99247.84
2023-04-17T14:49:00.832Z,99247.84
2023-04-17T14:51:27.435Z,99243.78
2023-04-17T14:53:53.854Z,99244.34
2023-04-17T14:56:21.331Z,99247.03
2023-04-17T14:58:47.705Z,99239.03
2023-04-17T15:01:14.097Z,99239.84
2023-04-17T15:03:41.050Z,99236.59
2023-04-17T15:06:08.801Z,99234.53
2023-04-17T15:08:35.217Z,99234.75
2023-04-17T15:11:01.534Z,99229.63
2023-04-17T15:13:27.837Z,99228.81
2023-04-17T15:15:55.141Z,99228.81
2023-04-17T15:18:21.457Z,99229.88
2023-04-17T15:20:47.796Z,99227.22
2023-04-17T15:23:15.361Z,99222.94
2023-04-17T15:25:41.904Z,99222.13
2023-04-17T15:28:08.667Z,99218.66
2023-04-17T15:30:35.101Z,99218.09
2023-04-17T15:33:01.464Z,99221.81
2023-04-17T15:35:27.872Z,99221.81
2023-04-17T15:37:54.218Z,99226.25
2023-04-17T15:40:20.929Z,99215.59
2023-04-17T15:42:47.237Z,99219.53
2023-04-17T15:45:13.577Z,99224.06
2023-04-17T15:47:39.945Z,99220.59
2023-04-17T15:50:06.672Z,99211.22
2023-04-17T15:52:33.045Z,99219.47
2023-04-17T15:54:59.374Z,99219.72
2023-04-17T15:57:25.827Z,99215.19
2023-04-17T15:59:52.230Z,99217.06
2023-04-17T16:02:18.893Z,99219.94
2023-04-17T16:04:45.387Z,99218.34
2023-04-17T16:07:12.161Z,99209.78
2023-04-17T16:09:39.668Z,99213.25
2023-04-17T16:12:08.641Z,99209.84
2023-04-17T16:14:36.043Z,99213.66
2023-04-17T16:17:02.739Z,99212.06
2023-04-17T16:19:29.094Z,99217.13
2023-04-17T16:21:56.820Z,99220.06
2023-04-17T16:24:26.003Z,99222.13
2023-04-17T16:26:57.124Z,99221.06
2023-04-17T16:29:26.224Z,99220.53
2023-04-17T16:31:53.301Z,99225.06
2023-04-17T16:34:20.795Z,99224.25
2023-04-17T16:36:47.381Z,99221.72
2023-04-17T16:39:14.422Z,99221.72
2023-04-17T16:41:41.062Z,99220.13
2023-04-17T16:44:07.407Z,99221.66
2023-04-17T16:46:45.710Z,99220.84
2023-04-17T16:49:18.403Z,99228.03
2023-04-17T16:51:44.810Z,99229.91
2023-04-17T16:54:11.770Z,99221.91
2023-04-17T16:56:38.307Z,99227.50
2023-04-17T16:59:05.027Z,99224.00
2023-04-17T17:01:34.262Z,99227.97
2023-04-17T17:04:00.646Z,99219.97
2023-04-17T17:06:27.198Z,99225.28
2023-04-17T17:08:55.237Z,99224.72
2023-04-17T17:11:21.943Z,99230.88
2023-04-17T17:13:49.176Z,99228.22
2023-04-17T17:16:15.991Z,99231.09
2023-04-17T17:18:42.396Z,99234.81
2023-04-17T17:21:08.966Z,99234.50
2023-04-17T17:23:35.277Z,99235.28
2023-04-17T17:26:01.626Z,99239.25
2023-04-17T17:28:27.945Z,99232.06
2023-04-17T17:31:01.427Z,99241.75
2023-04-17T17:33:27.782Z,99235.63
2023-04-17T17:35:54.111Z,99236.44
2023-04-17T17:38:20.457Z,99236.44
2023-04-17T17:40:47.051Z,99238.03
2023-04-17T17:43:13.379Z,99234.81
2023-04-17T17:45:39.741Z,99238.03
2023-04-17T17:48:06.101Z,99245.00
2023-04-17T17:50:32.455Z,99244.22
2023-04-17T17:52:59.115Z,99238.03
2023-04-17T17:55:25.647Z,99246.03
2023-04-17T17:57:51.964Z,99240.16
2023-04-17T18:00:18.412Z,99244.69
2023-04-17T18:02:44.869Z,99248.41
2023-04-17T18:05:11.343Z,99248.41
2023-04-17T18:07:37.663Z,99248.63
2023-04-17T18:10:04.203Z,99249.69
2023-04-17T18:12:30.527Z,99248.88
2023-04-17T18:14:56.875Z,99253.41
2023-04-17T18:17:23.246Z,99249.13
2023-04-17T18:19:49.608Z,99255.50
2023-04-17T18:22:16.126Z,99251.69
2023-04-17T18:24:42.605Z,99248.72
2023-04-17T18:27:08.930Z,99250.56
2023-04-17T18:29:35.381Z,99253.22
2023-04-17T18:32:01.697Z,99258.22
2023-04-17T18:34:28.018Z,99258.22
2023-04-17T18:36:54.547Z,99261.94
2023-04-17T18:39:20.913Z,99257.34
2023-04-17T18:41:47.322Z,99262.66
2023-04-17T18:44:14.363Z,99259.41
2023-04-17T18:46:41.150Z,99264.19
2023-04-17T18:49:07.537Z,99270.56
2023-04-17T18:51:33.870Z,99274.84
2023-04-17T18:54:00.312Z,99273.53
2023-04-17T18:56:26.704Z,99270.66
2023-04-17T18:58:53.035Z,99279.78
2023-04-17T19:01:19.540Z,99279.53
2023-04-17T19:03:46.185Z,99289.97
2023-04-17T19:06:12.508Z,99284.63
2023-04-17T19:08:39.507Z,99294.47
2023-04-17T19:11:06.042Z,99290.22
2023-04-17T19:13:32.400Z,99284.78
2023-04-17T19:15:58.758Z,99290.84
2023-04-17T19:18:25.092Z,99312.03
2023-04-17T19:20:51.438Z,99312.72
2023-04-17T19:23:17.786Z,99318.19
2023-04-17T19:25:44.159Z,99330.22
2023-04-17T19:28:10.904Z,99327.81
2023-04-17T19:30:37.683Z,99334.50
2023-04-17T19:33:04.105Z,99330.13
2023-04-17T19:35:30.500Z,99335.47
2023-04-17T19:37:56.829Z,99341.03
2023-04-17T19:40:25.550Z,99336.16
2023-04-17T19:42:52.250Z,99341.50
2023-04-17T19:45:20.596Z,99345.09
2023-04-17T19:47:49.263Z,99341.13
2023-04-17T19:50:15.709Z,99349.06
2023-04-17T19:52:43.095Z,99336.13
2023-04-17T19:55:09.663Z,99344.47
2023-04-17T19:57:36.453Z,99345.47
2023-04-17T20:00:02.920Z,99358.72
2023-04-17T20:02:29.349Z,99347.13
2023-04-17T20:04:55.789Z,99349.41
2023-04-17T20:07:22.101Z,99354.69
2023-04-17T20:09:48.458Z,99358.09
2023-04-17T20:12:14.781Z,99370.81
2023-04-17T20:14:41.125Z,99373.09
2023-04-17T20:17:07.513Z,99377.78
2023-04-17T20:19:33.880Z,99372.84
2023-04-17T20:22:00.218Z,99376.72
2023-04-17T20:24:26.544Z,99374.47
2023-04-17T20:26:53.164Z,99359.31
2023-04-17T20:29:21.259Z,99371.41
2023-04-17T20:31:47.662Z,99371.47
2023-04-17T20:34:14.066Z,99375.50
2023-04-17T20:36:40.384Z,99368.88
2023-04-17T20:39:07.196Z,99368.13
2023-04-17T20:41:33.526Z,99364.72
2023-04-17T20:44:00.009Z,99360.03
2023-04-17T20:46:26.989Z,99364.81
2023-04-17T20:48:53.390Z,99363.19
2023-04-17T20:51:20.819Z,99356.56
2023-04-17T20:53:47.136Z,99361.41
2023-04-17T20:56:13.523Z,99362.28
2023-04-17T20:58:39.990Z,99367.13
2023-04-17T21:01:06.323Z,99364.47
2023-04-17T21:03:32.912Z,99361.84
2023-04-17T21:05:59.872Z,99366.00
2023-04-17T21:08:26.363Z,99365.69
2023-04-17T21:10:52.693Z,99367.56
2023-04-17T21:13:19.010Z,99373.97
2023-04-17T21:15:45.429Z,99362.53
2023-04-17T21:18:11.838Z,99369.00
2023-04-17T21:20:38.166Z,99374.09
2023-04-17T21:23:04.507Z,99374.09
2023-04-17T21:25:30.836Z,99376.78
2023-04-17T21:27:57.159Z,99382.69
2023-04-17T21:30:25.841Z,99379.25
2023-04-17T21:32:53.547Z,99381.13
2023-04-17T21:35:19.935Z,99380.50
2023-04-17T21:37:46.245Z,99379.69
2023-04-17T21:40:12.967Z,99380.97
2023-04-17T21:42:39.298Z,99377.03
2023-04-17T21:45:05.850Z,99373.53
2023-04-17T21:47:32.822Z,99379.19
2023-04-17T21:50:00.197Z,99378.38
2023-04-17T21:52:26.787Z,99375.16
2023-04-17T21:54:53.130Z,99373.78
2023-04-17T21:57:19.435Z,99382.53
2023-04-17T21:59:45.766Z,99382.03
2023-04-17T22:02:12.234Z,99374.28
2023-04-17T22:04:38.721Z,99368.13
2023-04-17T22:07:05.544Z,99369.97
2023-04-17T22:09:31.887Z,99365.22
2023-04-17T22:11:58.640Z,99371.69
2023-04-17T22:14:25.013Z,99370.88
2023-04-17T22:16:51.390Z,99375.16
2023-04-17T22:19:17.741Z,99362.06
2023-04-17T22:21:44.101Z,99367.41
2023-04-17T22:24:11.389Z,99370.88
2023-04-17T22:26:37.843Z,99365.53
2023-04-17T22:29:04.156Z,99371.91
2023-04-17T22:31:30.580Z,99364.16
2023-04-17T22:33:57.269Z,99371.91
2023-04-17T22:36:23.574Z,99371.03
2023-04-17T22:38:49.886Z,99367.25
2023-04-17T22:41:16.207Z,99376.53
2023-04-17T22:43:42.559Z,99375.72
2023-04-17T22:46:08.905Z,99378.97
2023-04-17T22:48:35.213Z,99378.41
2023-04-17T22:51:02.315Z,99378.41
2023-04-17T22:53:28.947Z,99370.31
2023-04-17T22:56:05.023Z,99382.03
2023-04-17T22:58:31.771Z,99374.34
2023-04-17T23:00:58.294Z,99376.22
2023-04-17T23:03:24.648Z,99377.81
2023-04-17T23:05:53.037Z,99375.97
2023-04-17T23:08:19.352Z,99373.00
2023-04-17T23:10:45.669Z,99380.09
2023-04-17T23:13:11.981Z,99383.84
2023-04-17T23:15:38.641Z,99375.28
2023-04-17T23:18:05.014Z,99368.88
2023-04-17T23:20:31.364Z,99366.94
2023-04-17T23:22:57.664Z,99365.25
2023-04-17T23:25:23.993Z,99360.63
2023-04-17T23:27:50.316Z,99360.06
2023-04-17T23:30:16.675Z,99365.97
2023-04-17T23:32:43.249Z,99360.56
2023-04-17T23:35:09.680Z,99365.59
2023-04-17T23:37:36.309Z,99360.50
2023-04-17T23:40:02.695Z,99360.97
2023-04-17T23:42:29.271Z,99355.63
2023-04-17T23:44:55.608Z,99365.16
2023-04-17T23:47:21.947Z,99365.66
2023-04-17T23:49:48.307Z,99362.44
2023-04-17T23:52:14.622Z,99360.56
2023-04-17T23:54:40.982Z,99357.56
2023-04-17T23:57:07.322Z,99362.09
2023-04-17T23:59:33.644Z,99364.22
